createdAt,value
2023-04-10T00:01:26.120Z,8.80
2023-04-10T00:03:54.254Z,8.27
2023-04-10T00:06:22.254Z,7.90
2023-04-10T00:08:50.008Z,7.50
2023-04-10T00:11:17.743Z,8.17
2023-04-10T00:13:45.523Z,8.10
2023-04-10T00:16:13.285Z,8.17
2023-04-10T00:18:42.370Z,8.47
2023-04-10T00:21:10.111Z,7.87
2023-04-10T00:23:38.287Z,8.20
2023-04-10T00:26:06.509Z,9.23
2023-04-10T00:28:37.923Z,8.53
2023-04-10T00:31:06.303Z,8.37
2023-04-10T00:33:34.122Z,8.63
2023-04-10T00:36:03.310Z,8.83
2023-04-10T00:38:31.125Z,8.27
2023-04-10T00:40:58.887Z,9.67
2023-04-10T00:43:27.323Z,8.20
2023-04-10T00:45:55.363Z,9.00
2023-04-10T00:48:23.379Z,9.97
2023-04-10T00:50:51.137Z,9.50
2023-04-10T00:53:20.305Z,8.90
2023-04-10T00:55:49.010Z,9.60
2023-04-10T00:58:16.912Z,9.90
2023-04-10T01:00:44.922Z,10.23
2023-04-10T01:03:14.139Z,11.03
2023-04-10T01:05:48.759Z,11.77
2023-04-10T01:08:31.940Z,11.50
2023-04-10T01:11:06.572Z,10.67
2023-04-10T01:13:43.315Z,10.63
2023-04-10T01:16:17.365Z,11.10
2023-04-10T01:18:51.651Z,10.57
2023-04-10T01:21:19.677Z,10.77
2023-04-10T01:24:08.501Z,11.07
2023-04-10T01:26:53.971Z,11.23
2023-04-10T01:29:27.842Z,12.87
2023-04-10T01:32:02.998Z,11.87
2023-04-10T01:34:36.768Z,11.67
2023-04-10T01:37:09.334Z,11.20
2023-04-10T01:39:40.940Z,10.40
2023-04-10T01:42:10.317Z,10.07
2023-04-10T01:44:45.333Z,9.60
2023-04-10T01:47:15.657Z,9.47
2023-04-10T01:49:46.260Z,9.10
2023-04-10T01:52:15.254Z,8.67
2023-04-10T01:54:48.944Z,9.70
2023-04-10T01:57:23.694Z,10.00
2023-04-10T01:59:59.135Z,10.70
2023-04-10T02:02:31.145Z,10.40
2023-04-10T02:04:59.116Z,10.03
2023-04-10T02:07:32.531Z,9.90
2023-04-10T02:10:05.818Z,11.43
2023-04-10T02:12:39.251Z,10.27
2023-04-10T02:15:11.597Z,11.63
2023-04-10T02:17:40.710Z,11.97
2023-04-10T02:20:10.604Z,11.87
2023-04-10T02:22:38.602Z,11.83
2023-04-10T02:25:07.126Z,12.47
2023-04-10T02:27:36.697Z,11.87
2023-04-10T02:30:05.900Z,10.57
2023-04-10T02:32:37.804Z,11.10
2023-04-10T02:35:09.489Z,8.77
2023-04-10T02:37:38.452Z,8.73
2023-04-10T02:40:07.905Z,9.43
2023-04-10T02:42:53.000Z,8.47
2023-04-10T02:45:20.785Z,8.83
2023-04-10T02:47:50.244Z,8.70
2023-04-10T02:50:18.256Z,9.10
2023-04-10T02:52:47.352Z,9.40
2023-04-10T02:55:15.564Z,8.47
2023-04-10T02:57:43.812Z,8.80
2023-04-10T03:00:13.086Z,8.83
2023-04-10T03:03:11.337Z,8.90
2023-04-10T03:05:50.411Z,8.37
2023-04-10T03:08:23.918Z,9.60
2023-04-10T03:10:51.677Z,8.60
2023-04-10T03:13:19.832Z,8.30
2023-04-10T03:15:47.963Z,9.00
2023-04-10T03:18:17.234Z,8.03
2023-04-10T03:20:47.219Z,8.00
2023-04-10T03:23:14.961Z,8.60
2023-04-10T03:25:43.354Z,8.20
2023-04-10T03:28:12.001Z,8.83
2023-04-10T03:30:39.808Z,7.87
2023-04-10T03:33:07.556Z,8.07
2023-04-10T03:35:36.734Z,7.97
2023-04-10T03:38:04.578Z,8.10
2023-04-10T03:40:34.141Z,8.13
2023-04-10T03:43:02.061Z,7.90
2023-04-10T03:45:32.692Z,7.40
2023-04-10T03:48:01.263Z,7.67
2023-04-10T03:50:39.788Z,7.90
2023-04-10T03:53:07.798Z,7.70
2023-04-10T03:55:36.881Z,7.33
2023-04-10T03:58:05.240Z,8.00
2023-04-10T04:00:34.140Z,7.27
2023-04-10T04:03:19.017Z,7.97
2023-04-10T04:05:48.290Z,7.20
2023-04-10T04:08:32.340Z,7.23
2023-04-10T04:11:06.266Z,7.13
2023-04-10T04:13:54.672Z,7.57
2023-04-10T04:16:37.774Z,8.23
2023-04-10T04:19:23.943Z,7.20
2023-04-10T04:22:08.970Z,6.53
2023-04-10T04:24:55.056Z,6.63
2023-04-10T04:27:49.356Z,6.40
2023-04-10T04:30:32.485Z,7.33
2023-04-10T04:33:26.143Z,7.53
2023-04-10T04:36:03.581Z,8.63
2023-04-10T04:38:58.737Z,9.40
2023-04-10T04:41:33.230Z,8.40
2023-04-10T04:44:21.282Z,7.40
2023-04-10T04:47:08.821Z,7.60
2023-04-10T04:50:11.630Z,7.67
2023-04-10T04:53:14.946Z,7.53
2023-04-10T04:55:54.586Z,7.07
2023-04-10T04:58:45.405Z,6.87
2023-04-10T05:01:29.499Z,7.50
2023-04-10T05:04:16.225Z,7.23
2023-04-10T05:07:04.426Z,7.17
2023-04-10T05:09:57.979Z,7.77
2023-04-10T05:12:45.991Z,7.53
2023-04-10T05:15:36.629Z,7.30
2023-04-10T05:18:28.721Z,7.50
2023-04-10T05:21:02.268Z,8.27
2023-04-10T05:23:53.374Z,9.80
2023-04-10T05:26:44.016Z,9.80
2023-04-10T05:29:33.418Z,9.00
2023-04-10T05:32:20.262Z,9.70
2023-04-10T05:35:14.348Z,10.07
2023-04-10T05:37:48.045Z,9.43
2023-04-10T05:40:31.179Z,9.20
2023-04-10T05:43:22.008Z,9.93
2023-04-10T05:46:14.780Z,9.00
2023-04-10T05:49:01.205Z,9.97
2023-04-10T05:51:42.054Z,8.80
2023-04-10T05:54:19.019Z,9.10
2023-04-10T05:57:09.479Z,8.93
2023-04-10T05:59:55.734Z,8.77
2023-04-10T06:02:25.259Z,9.70
2023-04-10T06:04:53.330Z,8.50
2023-04-10T06:07:21.428Z,9.20
2023-04-10T06:09:49.152Z,8.97
2023-04-10T06:12:17.242Z,8.47
2023-04-10T06:14:45.030Z,9.57
2023-04-10T06:17:13.244Z,9.53
2023-04-10T06:19:42.404Z,8.53
2023-04-10T06:22:10.105Z,8.17
2023-04-10T06:24:37.932Z,9.13
2023-04-10T06:27:07.183Z,8.37
2023-04-10T06:29:35.960Z,8.47
2023-04-10T06:32:03.951Z,8.10
2023-04-10T06:34:36.363Z,8.13
2023-04-10T06:37:08.459Z,8.50
2023-04-10T06:39:39.314Z,7.70
2023-04-10T06:42:07.133Z,8.17
2023-04-10T06:44:44.377Z,7.90
2023-04-10T06:47:13.226Z,7.30
2023-04-10T06:49:40.969Z,8.30
2023-04-10T06:52:11.350Z,8.47
2023-04-10T06:54:39.226Z,8.33
2023-04-10T06:57:07.075Z,8.03
2023-04-10T06:59:35.752Z,8.63
2023-04-10T07:02:04.407Z,8.33
2023-04-10T07:04:33.992Z,8.13
2023-04-10T07:07:01.936Z,8.03
2023-04-10T07:09:32.004Z,8.53
2023-04-10T07:11:59.861Z,8.17
2023-04-10T07:14:27.607Z,8.97
2023-04-10T07:17:01.537Z,7.83
2023-04-10T07:19:29.454Z,8.83
2023-04-10T07:21:57.162Z,7.77
2023-04-10T07:24:25.292Z,7.23
2023-04-10T07:26:55.255Z,7.53
2023-04-10T07:29:29.260Z,7.80
2023-04-10T07:31:57.495Z,7.53
2023-04-10T07:34:25.777Z,7.67
2023-04-10T07:36:53.723Z,7.27
2023-04-10T07:39:21.499Z,7.83
2023-04-10T07:41:49.183Z,7.30
2023-04-10T07:44:18.539Z,6.50
2023-04-10T07:46:46.298Z,6.93
2023-04-10T07:49:13.944Z,6.47
2023-04-10T07:51:41.673Z,6.33
2023-04-10T07:54:09.457Z,6.27
2023-04-10T07:56:37.111Z,6.70
2023-04-10T07:59:04.900Z,6.50
2023-04-10T08:01:34.393Z,6.60
2023-04-10T08:04:05.349Z,6.20
2023-04-10T08:06:33.783Z,5.93
2023-04-10T08:09:02.056Z,6.47
2023-04-10T08:11:31.761Z,6.00
2023-04-10T08:14:02.525Z,6.07
2023-04-10T08:16:31.976Z,5.87
2023-04-10T08:19:02.032Z,5.70
2023-04-10T08:21:31.723Z,6.27
2023-04-10T08:24:00.864Z,5.53
2023-04-10T08:26:28.942Z,6.05
2023-04-10T08:28:58.296Z,6.40
2023-04-10T08:31:27.973Z,5.90
2023-04-10T08:33:56.492Z,5.90
2023-04-10T08:36:27.155Z,5.70
2023-04-10T08:38:55.059Z,6.43
2023-04-10T08:41:22.936Z,6.43
2023-04-10T08:43:51.661Z,5.90
2023-04-10T08:46:20.163Z,5.38
2023-04-10T08:48:49.605Z,5.07
2023-04-10T08:51:26.155Z,5.63
2023-04-10T08:54:03.628Z,5.15
2023-04-10T08:56:33.675Z,5.45
2023-04-10T08:59:03.360Z,5.30
2023-04-10T09:01:31.853Z,5.60
2023-04-10T09:04:00.208Z,4.55
2023-04-10T09:06:28.384Z,5.35
2023-04-10T09:12:00.411Z,5.77
2023-04-10T09:14:29.965Z,4.63
2023-04-10T09:17:13.048Z,4.53
2023-04-10T09:19:40.908Z,4.17
2023-04-10T09:22:08.700Z,4.50
2023-04-10T09:24:39.254Z,4.13
2023-04-10T09:27:07.760Z,4.07
2023-04-10T09:29:44.940Z,4.43
2023-04-10T09:32:12.930Z,4.35
2023-04-10T09:35:01.726Z,4.03
2023-04-10T09:37:32.746Z,3.90
2023-04-10T09:40:02.206Z,4.10
2023-04-10T09:42:32.786Z,3.92
2023-04-10T09:45:01.289Z,3.83
2023-04-10T09:47:30.025Z,3.77
2023-04-10T09:50:00.647Z,3.60
2023-04-10T09:52:30.834Z,3.47
2023-04-10T09:55:01.852Z,3.70
2023-04-10T09:57:31.344Z,3.58
2023-04-10T10:00:01.122Z,4.10
2023-04-10T10:02:31.178Z,3.65
2023-04-10T10:05:01.449Z,3.50
2023-04-10T10:07:31.133Z,3.30
2023-04-10T10:10:03.834Z,3.42
2023-04-10T10:12:37.140Z,3.63
2023-04-10T10:15:11.065Z,3.42
2023-04-10T10:17:44.127Z,3.53
2023-04-10T10:20:14.373Z,3.13
2023-04-10T10:22:43.094Z,3.67
2023-04-10T10:25:14.120Z,3.40
2023-04-10T10:27:42.996Z,3.80
2023-04-10T10:30:28.132Z,4.00
2023-04-10T10:32:59.329Z,3.40
2023-04-10T10:35:29.506Z,3.40
2023-04-10T10:38:00.664Z,3.90
2023-04-10T10:40:32.942Z,3.35
2023-04-10T10:43:10.115Z,3.38
2023-04-10T10:45:45.344Z,3.30
2023-04-10T10:48:13.454Z,3.53
2023-04-10T10:50:57.175Z,3.05
2023-04-10T10:53:36.299Z,3.15
2023-04-10T10:56:36.998Z,2.95
2023-04-10T10:59:04.760Z,3.17
2023-04-10T11:01:32.613Z,3.13
2023-04-10T11:04:01.329Z,3.10
2023-04-10T11:06:52.397Z,3.65
2023-04-10T11:09:48.784Z,3.63
2023-04-10T11:12:20.406Z,3.05
2023-04-10T11:14:59.112Z,4.00
2023-04-10T11:17:51.269Z,4.10
2023-04-10T11:20:28.927Z,3.30
2023-04-10T11:23:12.203Z,3.00
2023-04-10T11:25:51.275Z,3.05
2023-04-10T11:28:40.325Z,2.85
2023-04-10T11:31:19.789Z,2.80
2023-04-10T11:33:49.319Z,3.00
2023-04-10T11:36:18.547Z,3.00
2023-04-10T11:38:57.216Z,3.00
2023-04-10T11:41:30.595Z,3.03
2023-04-10T11:44:00.364Z,2.97
2023-04-10T11:46:28.409Z,2.95
2023-04-10T11:48:59.108Z,3.10
2023-04-10T11:51:28.294Z,3.00
2023-04-10T11:54:07.085Z,2.80
2023-04-10T11:56:35.355Z,2.95
2023-04-10T11:59:07.864Z,3.00
2023-04-10T12:01:35.781Z,3.00
2023-04-10T12:04:03.892Z,2.97
2023-04-10T12:06:32.846Z,2.83
2023-04-10T12:09:00.640Z,3.30
2023-04-10T12:11:29.640Z,3.00
2023-04-10T12:13:58.949Z,3.20
2023-04-10T12:16:28.505Z,3.27
2023-04-10T12:18:57.054Z,3.10
2023-04-10T12:21:26.217Z,2.90
2023-04-10T12:23:53.995Z,3.53
2023-04-10T12:26:22.134Z,3.33
2023-04-10T12:28:55.519Z,3.00
2023-04-10T12:31:32.729Z,3.10
2023-04-10T12:34:02.253Z,2.70
2023-04-10T12:36:32.209Z,2.60
2023-04-10T12:39:01.350Z,2.77
2023-04-10T12:41:31.197Z,3.00
2023-04-10T12:44:09.860Z,2.40
2023-04-10T12:46:40.036Z,2.70
2023-04-10T12:49:12.479Z,2.42
2023-04-10T12:51:46.883Z,2.38
2023-04-10T12:54:28.678Z,2.50
2023-04-10T12:56:57.706Z,2.47
2023-04-10T12:59:26.511Z,2.33
2023-04-10T13:01:56.452Z,2.72
2023-04-10T13:04:24.996Z,2.50
2023-04-10T13:06:53.535Z,2.60
2023-04-10T13:09:21.702Z,2.33
2023-04-10T13:11:51.518Z,2.42
2023-04-10T13:14:19.727Z,2.85
2023-04-10T13:16:47.543Z,2.47
2023-04-10T13:19:16.693Z,2.35
2023-04-10T13:21:44.439Z,2.50
2023-04-10T13:24:12.601Z,2.53
2023-04-10T13:26:41.374Z,2.60
2023-04-10T13:29:09.123Z,2.67
2023-04-10T13:31:36.992Z,2.20
2023-04-10T13:34:04.771Z,2.65
2023-04-10T13:36:33.910Z,2.70
2023-04-10T13:39:01.746Z,2.80
2023-04-10T13:41:29.548Z,2.50
2023-04-10T13:43:57.275Z,2.47
2023-04-10T13:46:25.534Z,2.57
2023-04-10T13:48:53.268Z,2.58
2023-04-10T13:51:20.989Z,2.60
2023-04-10T13:53:50.079Z,2.75
2023-04-10T13:56:17.839Z,2.60
2023-04-10T13:58:47.084Z,2.55
2023-04-10T14:01:14.940Z,2.60
2023-04-10T14:03:42.887Z,2.27
2023-04-10T14:06:10.674Z,2.63
2023-04-10T14:08:38.457Z,2.70
2023-04-10T14:11:08.208Z,2.50
2023-04-10T14:13:36.010Z,2.40
2023-04-10T14:16:04.371Z,2.70
2023-04-10T14:18:32.196Z,2.38
2023-04-10T14:20:59.884Z,2.78
2023-04-10T14:23:27.631Z,2.72
2023-04-10T14:25:55.436Z,2.80
2023-04-10T14:28:24.518Z,2.63
2023-04-10T14:30:52.785Z,3.05
2023-04-10T14:33:21.044Z,2.50
2023-04-10T14:35:49.252Z,2.40
2023-04-10T14:38:17.175Z,2.30
2023-04-10T14:40:48.478Z,2.30
2023-04-10T14:43:16.179Z,3.00
2023-04-10T14:45:45.300Z,2.05
2023-04-10T14:48:13.684Z,2.38
2023-04-10T14:50:41.490Z,2.30
2023-04-10T14:53:10.456Z,2.35
2023-04-10T14:55:38.212Z,2.05
2023-04-10T14:58:06.740Z,2.00
2023-04-10T15:00:34.630Z,1.90
2023-04-10T15:03:05.465Z,1.98
2023-04-10T15:05:33.542Z,1.85
2023-04-10T15:08:01.310Z,1.92
2023-04-10T15:10:29.980Z,2.10
2023-04-10T15:12:57.746Z,2.17
2023-04-10T15:15:25.547Z,2.47
2023-04-10T15:17:53.294Z,2.03
2023-04-10T15:20:22.407Z,2.38
2023-04-10T15:22:50.088Z,2.10
2023-04-10T15:25:17.817Z,1.90
2023-04-10T15:27:45.688Z,2.10
2023-04-10T15:30:13.783Z,1.80
2023-04-10T15:32:41.505Z,1.63
2023-04-10T15:35:09.708Z,1.80
2023-04-10T15:37:38.784Z,1.80
2023-04-10T15:40:07.590Z,2.10
2023-04-10T15:42:35.634Z,2.00
2023-04-10T15:45:03.544Z,1.80
2023-04-10T15:47:31.392Z,1.98
2023-04-10T15:49:59.353Z,2.28
2023-04-10T15:52:29.175Z,2.22
2023-04-10T15:54:58.402Z,2.35
2023-04-10T15:57:26.319Z,2.22
2023-04-10T15:59:56.332Z,2.20
2023-04-10T16:02:24.310Z,2.50
2023-04-10T16:04:52.387Z,2.42
2023-04-10T16:07:20.983Z,2.23
2023-04-10T16:09:48.633Z,2.37
2023-04-10T16:12:17.746Z,2.33
2023-04-10T16:14:45.607Z,2.60
2023-04-10T16:17:13.327Z,2.38
2023-04-10T16:19:41.040Z,2.22
2023-04-10T16:22:08.931Z,2.50
2023-04-10T16:24:36.708Z,2.67
2023-04-10T16:27:05.052Z,2.33
2023-04-10T16:29:34.221Z,2.70
2023-04-10T16:32:02.112Z,2.67
2023-04-10T16:34:29.879Z,2.33
2023-04-10T16:36:57.657Z,2.70
2023-04-10T16:39:25.451Z,2.90
2023-04-10T16:41:53.631Z,3.00
2023-04-10T16:44:21.334Z,3.03
2023-04-10T16:46:50.434Z,2.97
2023-04-10T16:49:18.207Z,3.08
2023-04-10T16:51:45.916Z,2.83
2023-04-10T16:54:14.588Z,2.78
2023-04-10T16:56:42.732Z,3.22
2023-04-10T16:59:10.574Z,6.83
2023-04-10T17:01:40.483Z,4.63
2023-04-10T17:04:10.164Z,3.90
2023-04-10T17:06:37.856Z,3.80
2023-04-10T17:09:05.658Z,3.67
2023-04-10T17:11:33.402Z,3.10
2023-04-10T17:14:03.180Z,3.20
2023-04-10T17:16:31.114Z,3.45
2023-04-10T17:18:58.958Z,3.57
2023-04-10T17:21:28.209Z,4.00
2023-04-10T17:23:56.059Z,3.73
2023-04-10T17:26:24.175Z,3.33
2023-04-10T17:28:52.170Z,3.50
2023-04-10T17:31:20.614Z,3.00
2023-04-10T17:33:48.404Z,3.50
2023-04-10T17:36:16.190Z,3.75
2023-04-10T17:38:45.328Z,3.38
2023-04-10T17:41:16.678Z,3.92
2023-04-10T17:43:44.538Z,3.55
2023-04-10T17:46:14.524Z,3.78
2023-04-10T17:48:42.451Z,3.65
2023-04-10T17:51:10.720Z,4.10
2023-04-10T17:53:38.521Z,3.90
2023-04-10T17:56:08.608Z,4.10
2023-04-10T17:58:36.335Z,4.15
2023-04-10T18:01:04.106Z,3.45
2023-04-10T18:03:31.936Z,2.72
2023-04-10T18:06:00.010Z,2.42
2023-04-10T18:08:27.933Z,3.28
2023-04-10T18:10:55.740Z,2.55
2023-04-10T18:13:24.827Z,2.97
2023-04-10T18:15:52.506Z,2.30
2023-04-10T18:18:20.137Z,2.58
2023-04-10T18:20:47.813Z,2.97
2023-04-10T18:23:15.556Z,3.13
2023-04-10T18:25:43.295Z,2.78
2023-04-10T18:28:14.866Z,2.63
2023-04-10T18:30:45.149Z,2.50
2023-04-10T18:33:14.016Z,2.50
2023-04-10T18:35:42.164Z,2.47
2023-04-10T18:38:09.995Z,2.22
2023-04-10T18:40:37.774Z,1.90
2023-04-10T18:43:05.623Z,2.63
2023-04-10T18:45:34.399Z,2.00
2023-04-10T18:48:03.965Z,1.83
2023-04-10T18:50:34.655Z,1.77
2023-04-10T18:53:02.820Z,2.05
2023-04-10T18:55:30.706Z,2.10
2023-04-10T18:57:58.699Z,2.35
2023-04-10T19:00:26.621Z,1.80
2023-04-10T19:02:54.677Z,2.00
2023-04-10T19:05:23.896Z,2.20
2023-04-10T19:08:02.925Z,1.75
2023-04-10T19:10:32.514Z,2.10
2023-04-10T19:13:00.315Z,2.00
2023-04-10T19:15:28.324Z,2.38
2023-04-10T19:17:56.241Z,1.70
2023-04-10T19:20:52.080Z,2.20
2023-04-10T19:23:13.865Z,2.20
2023-04-10T19:25:42.596Z,2.17
2023-04-10T19:28:10.418Z,2.15
2023-04-10T19:30:38.218Z,2.00
2023-04-10T19:33:06.123Z,2.20
2023-04-10T19:35:35.361Z,2.13
2023-04-10T19:38:03.084Z,2.60
2023-04-10T19:40:30.997Z,2.30
2023-04-10T19:43:00.298Z,2.27
2023-04-10T19:45:29.269Z,2.63
2023-04-10T19:47:57.737Z,2.70
2023-04-10T19:50:25.689Z,2.88
2023-04-10T19:52:54.836Z,2.60
2023-04-10T19:55:22.724Z,2.97
2023-04-10T19:57:50.890Z,2.70
2023-04-10T20:00:19.016Z,2.90
2023-04-10T20:02:47.278Z,3.90
2023-04-10T20:05:15.448Z,3.93
2023-04-10T20:07:43.305Z,4.10
2023-04-10T20:10:12.810Z,4.40
2023-04-10T20:12:40.633Z,3.87
2023-04-10T20:15:09.776Z,3.92
2023-04-10T20:17:38.733Z,2.83
2023-04-10T20:20:07.634Z,2.40
2023-04-10T20:22:35.400Z,2.37
2023-04-10T20:25:03.169Z,1.40
2023-04-10T20:27:32.200Z,1.70
2023-04-10T20:29:59.950Z,1.73
2023-04-10T20:32:27.879Z,1.10
2023-04-10T20:34:55.683Z,1.20
2023-04-10T20:37:23.459Z,1.20
2023-04-10T20:39:51.784Z,1.20
2023-04-10T20:42:20.454Z,1.40
2023-04-10T20:44:50.006Z,1.17
2023-04-10T20:47:17.800Z,1.23
2023-04-10T20:49:45.776Z,1.23
2023-04-10T20:52:13.567Z,1.17
2023-04-10T20:54:41.342Z,1.00
2023-04-10T20:57:10.311Z,0.87
2023-04-10T20:59:38.040Z,0.87
2023-04-10T21:02:07.777Z,1.10
2023-04-10T21:04:35.727Z,1.23
2023-04-10T21:07:03.483Z,1.13
2023-04-10T21:09:31.411Z,1.17
2023-04-10T21:11:59.168Z,1.23
2023-04-10T21:14:26.897Z,1.30
2023-04-10T21:16:54.804Z,1.40
2023-04-10T21:19:23.963Z,1.20
2023-04-10T21:21:51.756Z,1.53
2023-04-10T21:24:19.457Z,1.50
2023-04-10T21:26:47.228Z,1.33
2023-04-10T21:29:14.957Z,1.87
2023-04-10T21:31:42.786Z,1.50
2023-04-10T21:34:10.569Z,1.30
2023-04-10T21:36:39.890Z,1.40
2023-04-10T21:39:09.086Z,1.33
2023-04-10T21:41:37.060Z,1.50
2023-04-10T21:44:04.857Z,1.30
2023-04-10T21:46:32.870Z,1.70
2023-04-10T21:49:01.055Z,1.73
2023-04-10T21:51:28.858Z,1.80
2023-04-10T21:53:57.979Z,1.60
2023-04-10T21:56:25.813Z,1.53
2023-04-10T21:58:53.985Z,1.98
2023-04-10T22:01:21.897Z,2.00
2023-04-10T22:03:50.620Z,2.10
2023-04-10T22:06:18.511Z,1.90
2023-04-10T22:08:46.703Z,2.10
2023-04-10T22:11:15.917Z,1.73
2023-04-10T22:13:43.604Z,1.67
2023-04-10T22:16:11.338Z,2.03
2023-04-10T22:18:39.062Z,1.70
2023-04-10T22:21:07.182Z,1.83
2023-04-10T22:23:34.919Z,2.10
2023-04-10T22:26:02.652Z,1.70
2023-04-10T22:28:31.782Z,2.10
2023-04-10T22:30:59.640Z,2.00
2023-04-10T22:33:27.475Z,1.87
2023-04-10T22:35:55.268Z,2.00
2023-04-10T22:38:22.996Z,2.00
2023-04-10T22:40:50.822Z,1.70
2023-04-10T22:43:18.608Z,1.93
2023-04-10T22:45:47.901Z,1.63
2023-04-10T22:48:15.719Z,2.03
2023-04-10T22:50:43.525Z,1.67
2023-04-10T22:53:11.857Z,1.70
2023-04-10T22:55:39.736Z,1.50
2023-04-10T22:58:08.094Z,1.50
2023-04-10T23:00:35.866Z,1.50
2023-04-10T23:03:05.284Z,1.30
2023-04-10T23:05:33.222Z,1.87
2023-04-10T23:08:00.913Z,1.80
2023-04-10T23:10:28.648Z,1.80
2023-04-10T23:12:56.415Z,1.40
2023-04-10T23:15:24.125Z,1.57
2023-04-10T23:17:51.853Z,1.30
2023-04-10T23:20:21.033Z,1.60
2023-04-10T23:22:48.748Z,1.27
2023-04-10T23:25:16.547Z,1.30
2023-04-10T23:27:44.326Z,1.30
2023-04-10T23:30:12.543Z,1.50
2023-04-10T23:32:40.408Z,1.60
2023-04-10T23:35:08.619Z,1.27
2023-04-10T23:37:37.731Z,1.97
2023-04-10T23:40:06.471Z,1.43
2023-04-10T23:42:34.248Z,1.13
2023-04-10T23:45:01.968Z,1.40
2023-04-10T23:47:29.848Z,1.17
2023-04-10T23:49:57.603Z,1.13
2023-04-10T23:52:25.346Z,1.20
2023-04-10T23:54:56.579Z,0.90
2023-04-10T23:57:24.536Z,1.20
2023-04-10T23:59:52.744Z,1.23
